sensor_id;sensor_type;location;lat;lon;timestamp;P1;durP1;ratioP1;P2;durP2;ratioP2
74363;SDS011;62797;49.740;10.154;2022-12-18T00:00:31;157.15;;;56.20;;
74363;SDS011;62797;49.740;10.154;2022-12-18T00:02:56;127.82;;;50.67;;
74363;SDS011;62797;49.740;10.154;2022-12-18T00:05:22;125.38;;;51.70;;
74363;SDS011;62797;49.740;10.154;2022-12-18T00:07:47;116.05;;;44.78;;
74363;SDS011;62797;49.740;10.154;2022-12-18T00:10:13;133.82;;;48.88;;
74363;SDS011;62797;49.740;10.154;2022-12-18T00:12:38;112.25;;;43.30;;
74363;SDS011;62797;49.740;10.154;2022-12-18T00:15:04;111.40;;;42.95;;
74363;SDS011;62797;49.740;10.154;2022-12-18T00:19:55;109.40;;;39.33;;
74363;SDS011;62797;49.740;10.154;2022-12-18T00:22:21;98.18;;;40.78;;
74363;SDS011;62797;49.740;10.154;2022-12-18T00:24:46;126.07;;;49.25;;
74363;SDS011;62797;49.740;10.154;2022-12-18T00:27:12;121.30;;;41.40;;
74363;SDS011;62797;49.740;10.154;2022-12-18T00:29:38;110.35;;;42.28;;
74363;SDS011;62797;49.740;10.154;2022-12-18T00:32:03;116.78;;;44.80;;
74363;SDS011;62797;49.740;10.154;2022-12-18T00:34:29;121.40;;;47.53;;
74363;SDS011;62797;49.740;10.154;2022-12-18T00:39:20;115.32;;;41.78;;
74363;SDS011;62797;49.740;10.154;2022-12-18T00:41:46;119.63;;;43.45;;
74363;SDS011;62797;49.740;10.154;2022-12-18T00:44:30;112.03;;;44.85;;
74363;SDS011;62797;49.740;10.154;2022-12-18T00:46:56;98.80;;;41.08;;
74363;SDS011;62797;49.740;10.154;2022-12-18T00:49:21;121.72;;;41.75;;
74363;SDS011;62797;49.740;10.154;2022-12-18T00:51:47;129.13;;;45.20;;
74363;SDS011;62797;49.740;10.154;2022-12-18T00:54:13;130.65;;;44.25;;
74363;SDS011;62797;49.740;10.154;2022-12-18T00:56:39;112.65;;;42.70;;
74363;SDS011;62797;49.740;10.154;2022-12-18T00:59:05;122.60;;;46.10;;
74363;SDS011;62797;49.740;10.154;2022-12-18T01:03:57;110.88;;;42.88;;
74363;SDS011;62797;49.740;10.154;2022-12-18T01:06:23;109.20;;;43.00;;
74363;SDS011;62797;49.740;10.154;2022-12-18T01:08:49;106.65;;;41.35;;
74363;SDS011;62797;49.740;10.154;2022-12-18T01:11:16;116.97;;;41.78;;
74363;SDS011;62797;49.740;10.154;2022-12-18T01:13:43;102.40;;;40.88;;
74363;SDS011;62797;49.740;10.154;2022-12-18T01:16:11;104.38;;;41.60;;
74363;SDS011;62797;49.740;10.154;2022-12-18T01:18:37;92.80;;;35.72;;
74363;SDS011;62797;49.740;10.154;2022-12-18T01:21:09;97.85;;;39.60;;
74363;SDS011;62797;49.740;10.154;2022-12-18T01:23:37;106.15;;;40.38;;
74363;SDS011;62797;49.740;10.154;2022-12-18T01:26:06;97.30;;;39.08;;
74363;SDS011;62797;49.740;10.154;2022-12-18T01:28:36;107.15;;;39.03;;
74363;SDS011;62797;49.740;10.154;2022-12-18T01:31:12;112.43;;;41.67;;
74363;SDS011;62797;49.740;10.154;2022-12-18T01:33:40;121.22;;;43.53;;
74363;SDS011;62797;49.740;10.154;2022-12-18T01:36:06;119.47;;;43.60;;
74363;SDS011;62797;49.740;10.154;2022-12-18T01:38:32;105.85;;;40.20;;
74363;SDS011;62797;49.740;10.154;2022-12-18T01:40:58;110.70;;;40.50;;
74363;SDS011;62797;49.740;10.154;2022-12-18T01:46:10;101.38;;;39.28;;
74363;SDS011;62797;49.740;10.154;2022-12-18T01:48:36;114.53;;;39.75;;
74363;SDS011;62797;49.740;10.154;2022-12-18T01:51:04;98.30;;;40.17;;
74363;SDS011;62797;49.740;10.154;2022-12-18T01:53:30;102.95;;;40.03;;
74363;SDS011;62797;49.740;10.154;2022-12-18T01:55:56;113.70;;;40.17;;
74363;SDS011;62797;49.740;10.154;2022-12-18T01:59:24;111.57;;;38.08;;
74363;SDS011;62797;49.740;10.154;2022-12-18T02:01:25;93.25;;;36.20;;
74363;SDS011;62797;49.740;10.154;2022-12-18T02:03:51;108.28;;;42.35;;
74363;SDS011;62797;49.740;10.154;2022-12-18T02:06:27;85.00;;;36.40;;
74363;SDS011;62797;49.740;10.154;2022-12-18T02:09:02;96.97;;;35.72;;
74363;SDS011;62797;49.740;10.154;2022-12-18T02:17:51;112.75;;;36.40;;
74363;SDS011;62797;49.740;10.154;2022-12-18T02:20:22;103.45;;;42.40;;
74363;SDS011;62797;49.740;10.154;2022-12-18T02:23:18;98.37;;;36.70;;
74363;SDS011;62797;49.740;10.154;2022-12-18T02:26:06;108.53;;;35.88;;
74363;SDS011;62797;49.740;10.154;2022-12-18T02:28:46;101.28;;;37.40;;
74363;SDS011;62797;49.740;10.154;2022-12-18T02:31:19;112.45;;;40.92;;
74363;SDS011;62797;49.740;10.154;2022-12-18T02:33:49;109.65;;;42.38;;
74363;SDS011;62797;49.740;10.154;2022-12-18T02:36:16;101.80;;;37.15;;
74363;SDS011;62797;49.740;10.154;2022-12-18T02:38:44;90.88;;;36.55;;
74363;SDS011;62797;49.740;10.154;2022-12-18T02:41:11;116.90;;;38.65;;
74363;SDS011;62797;49.740;10.154;2022-12-18T02:43:40;102.45;;;39.50;;
74363;SDS011;62797;49.740;10.154;2022-12-18T02:46:25;107.18;;;42.10;;
74363;SDS011;62797;49.740;10.154;2022-12-18T02:49:01;90.55;;;34.63;;
74363;SDS011;62797;49.740;10.154;2022-12-18T02:51:55;94.70;;;37.42;;
74363;SDS011;62797;49.740;10.154;2022-12-18T02:57:16;99.57;;;38.63;;
74363;SDS011;62797;49.740;10.154;2022-12-18T03:00:00;98.47;;;38.55;;
74363;SDS011;62797;49.740;10.154;2022-12-18T03:02:35;95.35;;;38.55;;
74363;SDS011;62797;49.740;10.154;2022-12-18T03:05:26;97.85;;;38.83;;
74363;SDS011;62797;49.740;10.154;2022-12-18T03:07:57;94.40;;;36.45;;
74363;SDS011;62797;49.740;10.154;2022-12-18T03:10:40;97.05;;;36.38;;
74363;SDS011;62797;49.740;10.154;2022-12-18T03:13:13;102.38;;;39.05;;
74363;SDS011;62797;49.740;10.154;2022-12-18T03:15:47;87.35;;;35.30;;
74363;SDS011;62797;49.740;10.154;2022-12-18T03:20:44;99.13;;;36.88;;
74363;SDS011;62797;49.740;10.154;2022-12-18T03:23:17;87.78;;;32.88;;
74363;SDS011;62797;49.740;10.154;2022-12-18T03:25:50;98.38;;;37.13;;
74363;SDS011;62797;49.740;10.154;2022-12-18T03:28:20;87.32;;;34.65;;
74363;SDS011;62797;49.740;10.154;2022-12-18T03:30:47;88.53;;;36.10;;
74363;SDS011;62797;49.740;10.154;2022-12-18T03:33:18;89.72;;;34.45;;
74363;SDS011;62797;49.740;10.154;2022-12-18T03:35:48;91.68;;;34.70;;
74363;SDS011;62797;49.740;10.154;2022-12-18T03:38:14;91.53;;;35.28;;
74363;SDS011;62797;49.740;10.154;2022-12-18T03:40:50;115.07;;;42.63;;
74363;SDS011;62797;49.740;10.154;2022-12-18T03:46:04;102.30;;;38.15;;
74363;SDS011;62797;49.740;10.154;2022-12-18T03:48:43;82.50;;;34.33;;
74363;SDS011;62797;49.740;10.154;2022-12-18T03:51:16;103.00;;;40.03;;
74363;SDS011;62797;49.740;10.154;2022-12-18T03:53:55;91.28;;;34.90;;
74363;SDS011;62797;49.740;10.154;2022-12-18T03:56:25;101.82;;;37.25;;
74363;SDS011;62797;49.740;10.154;2022-12-18T03:58:54;90.65;;;36.83;;
74363;SDS011;62797;49.740;10.154;2022-12-18T04:01:23;83.40;;;34.53;;
74363;SDS011;62797;49.740;10.154;2022-12-18T04:03:55;106.65;;;41.08;;
74363;SDS011;62797;49.740;10.154;2022-12-18T04:06:22;118.63;;;41.42;;
74363;SDS011;62797;49.740;10.154;2022-12-18T04:08:48;104.95;;;37.10;;
74363;SDS011;62797;49.740;10.154;2022-12-18T04:11:14;89.75;;;36.20;;
74363;SDS011;62797;49.740;10.154;2022-12-18T04:13:41;92.35;;;36.40;;
74363;SDS011;62797;49.740;10.154;2022-12-18T04:16:07;95.78;;;37.72;;
74363;SDS011;62797;49.740;10.154;2022-12-18T04:18:34;99.25;;;39.67;;
74363;SDS011;62797;49.740;10.154;2022-12-18T04:21:00;101.35;;;41.40;;
74363;SDS011;62797;49.740;10.154;2022-12-18T04:23:26;115.07;;;42.22;;
74363;SDS011;62797;49.740;10.154;2022-12-18T04:25:53;118.15;;;41.40;;
74363;SDS011;62797;49.740;10.154;2022-12-18T04:28:18;112.22;;;43.30;;
74363;SDS011;62797;49.740;10.154;2022-12-18T04:30:44;103.03;;;40.38;;
74363;SDS011;62797;49.740;10.154;2022-12-18T04:33:10;102.82;;;36.72;;
74363;SDS011;62797;49.740;10.154;2022-12-18T04:35:36;89.22;;;33.30;;
74363;SDS011;62797;49.740;10.154;2022-12-18T04:38:02;82.57;;;35.53;;
74363;SDS011;62797;49.740;10.154;2022-12-18T04:40:27;105.88;;;40.78;;
74363;SDS011;62797;49.740;10.154;2022-12-18T04:42:53;106.57;;;38.67;;
74363;SDS011;62797;49.740;10.154;2022-12-18T04:45:18;106.78;;;40.10;;
74363;SDS011;62797;49.740;10.154;2022-12-18T04:47:44;107.10;;;37.60;;
74363;SDS011;62797;49.740;10.154;2022-12-18T04:50:09;94.22;;;39.00;;
74363;SDS011;62797;49.740;10.154;2022-12-18T04:52:35;113.10;;;42.17;;
74363;SDS011;62797;49.740;10.154;2022-12-18T04:55:01;104.65;;;39.30;;
74363;SDS011;62797;49.740;10.154;2022-12-18T04:57:26;79.75;;;33.80;;
74363;SDS011;62797;49.740;10.154;2022-12-18T04:59:52;95.82;;;34.88;;
74363;SDS011;62797;49.740;10.154;2022-12-18T05:02:17;89.25;;;35.53;;
74363;SDS011;62797;49.740;10.154;2022-12-18T05:04:43;111.97;;;37.45;;
74363;SDS011;62797;49.740;10.154;2022-12-18T05:07:09;95.43;;;35.88;;
74363;SDS011;62797;49.740;10.154;2022-12-18T05:09:35;82.22;;;32.45;;
74363;SDS011;62797;49.740;10.154;2022-12-18T05:12:00;91.55;;;34.38;;
74363;SDS011;62797;49.740;10.154;2022-12-18T05:14:26;84.80;;;33.40;;
74363;SDS011;62797;49.740;10.154;2022-12-18T05:16:54;93.35;;;33.75;;
74363;SDS011;62797;49.740;10.154;2022-12-18T05:19:19;105.78;;;38.22;;
74363;SDS011;62797;49.740;10.154;2022-12-18T05:21:45;112.32;;;36.38;;
74363;SDS011;62797;49.740;10.154;2022-12-18T05:24:10;97.13;;;30.75;;
74363;SDS011;62797;49.740;10.154;2022-12-18T05:26:36;99.10;;;30.83;;
74363;SDS011;62797;49.740;10.154;2022-12-18T05:29:02;81.63;;;26.98;;
74363;SDS011;62797;49.740;10.154;2022-12-18T05:31:28;83.03;;;27.73;;
74363;SDS011;62797;49.740;10.154;2022-12-18T05:33:53;110.28;;;33.40;;
74363;SDS011;62797;49.740;10.154;2022-12-18T05:36:19;84.57;;;29.10;;
74363;SDS011;62797;49.740;10.154;2022-12-18T05:38:44;96.85;;;31.80;;
74363;SDS011;62797;49.740;10.154;2022-12-18T05:43:36;96.60;;;26.42;;
74363;SDS011;62797;49.740;10.154;2022-12-18T05:46:03;107.60;;;32.08;;
74363;SDS011;62797;49.740;10.154;2022-12-18T05:48:30;95.40;;;30.17;;
74363;SDS011;62797;49.740;10.154;2022-12-18T05:53:27;96.32;;;30.98;;
74363;SDS011;62797;49.740;10.154;2022-12-18T05:58:18;111.50;;;32.83;;
74363;SDS011;62797;49.740;10.154;2022-12-18T06:03:11;105.65;;;29.75;;
74363;SDS011;62797;49.740;10.154;2022-12-18T06:05:41;97.32;;;31.33;;
74363;SDS011;62797;49.740;10.154;2022-12-18T06:08:08;104.78;;;32.08;;
74363;SDS011;62797;49.740;10.154;2022-12-18T06:10:35;85.00;;;29.08;;
74363;SDS011;62797;49.740;10.154;2022-12-18T06:15:26;90.15;;;30.95;;
74363;SDS011;62797;49.740;10.154;2022-12-18T06:20:18;86.53;;;27.75;;
74363;SDS011;62797;49.740;10.154;2022-12-18T06:22:43;81.00;;;28.95;;
74363;SDS011;62797;49.740;10.154;2022-12-18T06:27:34;74.63;;;27.35;;
74363;SDS011;62797;49.740;10.154;2022-12-18T06:30:02;85.25;;;29.77;;
74363;SDS011;62797;49.740;10.154;2022-12-18T06:32:28;82.72;;;32.03;;
74363;SDS011;62797;49.740;10.154;2022-12-18T06:37:21;72.35;;;27.83;;
74363;SDS011;62797;49.740;10.154;2022-12-18T06:39:50;74.47;;;27.10;;
74363;SDS011;62797;49.740;10.154;2022-12-18T06:42:17;80.15;;;30.35;;
74363;SDS011;62797;49.740;10.154;2022-12-18T06:47:08;83.47;;;30.73;;
74363;SDS011;62797;49.740;10.154;2022-12-18T06:49:33;80.30;;;28.48;;
74363;SDS011;62797;49.740;10.154;2022-12-18T06:51:59;77.22;;;28.45;;
74363;SDS011;62797;49.740;10.154;2022-12-18T06:54:24;87.32;;;29.77;;
74363;SDS011;62797;49.740;10.154;2022-12-18T06:56:50;74.45;;;29.17;;
74363;SDS011;62797;49.740;10.154;2022-12-18T07:01:41;84.32;;;29.27;;
74363;SDS011;62797;49.740;10.154;2022-12-18T07:04:06;83.63;;;31.88;;
74363;SDS011;62797;49.740;10.154;2022-12-18T07:08:57;90.45;;;32.08;;
74363;SDS011;62797;49.740;10.154;2022-12-18T07:13:48;91.13;;;34.90;;
74363;SDS011;62797;49.740;10.154;2022-12-18T07:16:15;81.15;;;31.85;;
74363;SDS011;62797;49.740;10.154;2022-12-18T07:18:45;87.07;;;31.75;;
74363;SDS011;62797;49.740;10.154;2022-12-18T07:21:11;84.22;;;34.00;;
74363;SDS011;62797;49.740;10.154;2022-12-18T07:23:39;81.22;;;30.25;;
74363;SDS011;62797;49.740;10.154;2022-12-18T07:26:09;82.60;;;30.45;;
74363;SDS011;62797;49.740;10.154;2022-12-18T07:28:36;82.03;;;30.75;;
74363;SDS011;62797;49.740;10.154;2022-12-18T07:31:09;71.32;;;26.52;;
74363;SDS011;62797;49.740;10.154;2022-12-18T07:33:44;77.05;;;30.13;;
74363;SDS011;62797;49.740;10.154;2022-12-18T07:36:10;94.40;;;33.58;;
74363;SDS011;62797;49.740;10.154;2022-12-18T07:38:38;83.22;;;33.08;;
74363;SDS011;62797;49.740;10.154;2022-12-18T07:41:05;83.25;;;32.08;;
74363;SDS011;62797;49.740;10.154;2022-12-18T07:43:32;77.25;;;30.35;;
74363;SDS011;62797;49.740;10.154;2022-12-18T07:48:24;77.40;;;31.10;;
74363;SDS011;62797;49.740;10.154;2022-12-18T07:50:49;80.90;;;28.63;;
74363;SDS011;62797;49.740;10.154;2022-12-18T07:53:15;81.70;;;29.10;;
74363;SDS011;62797;49.740;10.154;2022-12-18T07:55:41;93.60;;;33.90;;
74363;SDS011;62797;49.740;10.154;2022-12-18T07:58:07;89.75;;;33.90;;
74363;SDS011;62797;49.740;10.154;2022-12-18T08:00:33;103.00;;;36.92;;
74363;SDS011;62797;49.740;10.154;2022-12-18T08:02:59;100.85;;;35.83;;
74363;SDS011;62797;49.740;10.154;2022-12-18T08:05:25;96.47;;;35.65;;
74363;SDS011;62797;49.740;10.154;2022-12-18T08:10:16;81.03;;;33.10;;
74363;SDS011;62797;49.740;10.154;2022-12-18T08:12:42;80.93;;;30.27;;
74363;SDS011;62797;49.740;10.154;2022-12-18T08:15:07;75.00;;;29.17;;
74363;SDS011;62797;49.740;10.154;2022-12-18T08:17:35;90.80;;;32.47;;
74363;SDS011;62797;49.740;10.154;2022-12-18T08:20:00;96.50;;;35.88;;
74363;SDS011;62797;49.740;10.154;2022-12-18T08:22:26;93.50;;;33.47;;
74363;SDS011;62797;49.740;10.154;2022-12-18T08:24:52;88.95;;;29.98;;
74363;SDS011;62797;49.740;10.154;2022-12-18T08:27:17;84.43;;;32.15;;
74363;SDS011;62797;49.740;10.154;2022-12-18T08:29:43;82.65;;;30.75;;
74363;SDS011;62797;49.740;10.154;2022-12-18T08:32:08;88.50;;;33.13;;
74363;SDS011;62797;49.740;10.154;2022-12-18T08:34:34;88.60;;;34.35;;
74363;SDS011;62797;49.740;10.154;2022-12-18T08:36:59;90.18;;;32.42;;
74363;SDS011;62797;49.740;10.154;2022-12-18T08:39:26;99.25;;;36.78;;
74363;SDS011;62797;49.740;10.154;2022-12-18T08:41:52;88.65;;;34.17;;
74363;SDS011;62797;49.740;10.154;2022-12-18T08:44:37;86.18;;;32.47;;
74363;SDS011;62797;49.740;10.154;2022-12-18T08:47:03;85.55;;;32.45;;
74363;SDS011;62797;49.740;10.154;2022-12-18T08:49:29;103.32;;;35.15;;
74363;SDS011;62797;49.740;10.154;2022-12-18T08:51:55;77.95;;;31.08;;
74363;SDS011;62797;49.740;10.154;2022-12-18T08:54:24;103.90;;;35.88;;
74363;SDS011;62797;49.740;10.154;2022-12-18T08:56:50;100.85;;;33.38;;
74363;SDS011;62797;49.740;10.154;2022-12-18T08:59:17;104.13;;;34.80;;
74363;SDS011;62797;49.740;10.154;2022-12-18T09:01:43;99.80;;;38.75;;
74363;SDS011;62797;49.740;10.154;2022-12-18T09:04:10;89.55;;;29.80;;
74363;SDS011;62797;49.740;10.154;2022-12-18T09:06:35;90.13;;;32.55;;
74363;SDS011;62797;49.740;10.154;2022-12-18T09:11:28;88.88;;;32.10;;
74363;SDS011;62797;49.740;10.154;2022-12-18T09:13:54;86.72;;;31.50;;
74363;SDS011;62797;49.740;10.154;2022-12-18T09:18:47;92.95;;;31.08;;
74363;SDS011;62797;49.740;10.154;2022-12-18T09:23:40;90.68;;;31.95;;
74363;SDS011;62797;49.740;10.154;2022-12-18T09:26:06;91.30;;;34.75;;
74363;SDS011;62797;49.740;10.154;2022-12-18T09:28:32;104.05;;;36.58;;
74363;SDS011;62797;49.740;10.154;2022-12-18T09:30:57;78.90;;;29.67;;
74363;SDS011;62797;49.740;10.154;2022-12-18T09:33:23;84.03;;;32.95;;
74363;SDS011;62797;49.740;10.154;2022-12-18T09:35:49;85.38;;;32.30;;
74363;SDS011;62797;49.740;10.154;2022-12-18T09:38:15;79.32;;;30.23;;
74363;SDS011;62797;49.740;10.154;2022-12-18T09:40:47;91.55;;;34.72;;
74363;SDS011;62797;49.740;10.154;2022-12-18T09:44:04;78.70;;;30.85;;
74363;SDS011;62797;49.740;10.154;2022-12-18T09:46:11;99.95;;;35.83;;
74363;SDS011;62797;49.740;10.154;2022-12-18T09:48:44;88.10;;;31.95;;
74363;SDS011;62797;49.740;10.154;2022-12-18T09:51:19;78.20;;;30.42;;
74363;SDS011;62797;49.740;10.154;2022-12-18T09:53:52;87.93;;;35.60;;
74363;SDS011;62797;49.740;10.154;2022-12-18T09:56:23;88.55;;;32.97;;
74363;SDS011;62797;49.740;10.154;2022-12-18T10:01:24;79.95;;;31.55;;
74363;SDS011;62797;49.740;10.154;2022-12-18T10:03:51;71.35;;;26.80;;
74363;SDS011;62797;49.740;10.154;2022-12-18T10:06:21;70.28;;;26.63;;
74363;SDS011;62797;49.740;10.154;2022-12-18T10:17:03;59.20;;;22.85;;
74363;SDS011;62797;49.740;10.154;2022-12-18T10:19:37;63.78;;;22.27;;
74363;SDS011;62797;49.740;10.154;2022-12-18T10:24:53;63.70;;;22.80;;
74363;SDS011;62797;49.740;10.154;2022-12-18T10:27:26;70.33;;;22.17;;
74363;SDS011;62797;49.740;10.154;2022-12-18T10:29:52;63.92;;;24.00;;
74363;SDS011;62797;49.740;10.154;2022-12-18T10:32:29;58.50;;;21.27;;
74363;SDS011;62797;49.740;10.154;2022-12-18T10:34:56;65.07;;;24.00;;
74363;SDS011;62797;49.740;10.154;2022-12-18T10:37:24;60.65;;;22.50;;
74363;SDS011;62797;49.740;10.154;2022-12-18T10:42:38;60.73;;;23.43;;
74363;SDS011;62797;49.740;10.154;2022-12-18T10:47:35;57.92;;;21.48;;
74363;SDS011;62797;49.740;10.154;2022-12-18T10:50:01;56.17;;;21.25;;
74363;SDS011;62797;49.740;10.154;2022-12-18T10:52:28;50.63;;;19.77;;
74363;SDS011;62797;49.740;10.154;2022-12-18T10:54:58;57.75;;;21.33;;
74363;SDS011;62797;49.740;10.154;2022-12-18T11:03:00;50.97;;;19.67;;
74363;SDS011;62797;49.740;10.154;2022-12-18T11:07:54;55.90;;;23.45;;
74363;SDS011;62797;49.740;10.154;2022-12-18T11:10:41;59.13;;;21.50;;
74363;SDS011;62797;49.740;10.154;2022-12-18T11:13:18;50.25;;;19.42;;
74363;SDS011;62797;49.740;10.154;2022-12-18T11:15:46;58.13;;;21.25;;
74363;SDS011;62797;49.740;10.154;2022-12-18T11:20:51;50.53;;;18.83;;
74363;SDS011;62797;49.740;10.154;2022-12-18T11:23:32;47.83;;;18.55;;
74363;SDS011;62797;49.740;10.154;2022-12-18T11:26:00;57.83;;;21.50;;
74363;SDS011;62797;49.740;10.154;2022-12-18T11:28:35;54.92;;;20.38;;
74363;SDS011;62797;49.740;10.154;2022-12-18T11:36:35;53.40;;;20.50;;
74363;SDS011;62797;49.740;10.154;2022-12-18T11:39:20;58.53;;;22.67;;
74363;SDS011;62797;49.740;10.154;2022-12-18T11:41:53;49.13;;;18.20;;
74363;SDS011;62797;49.740;10.154;2022-12-18T11:44:38;49.10;;;18.40;;
74363;SDS011;62797;49.740;10.154;2022-12-18T11:47:15;55.58;;;21.05;;
74363;SDS011;62797;49.740;10.154;2022-12-18T11:49:50;53.58;;;21.20;;
74363;SDS011;62797;49.740;10.154;2022-12-18T11:55:13;58.80;;;21.92;;
74363;SDS011;62797;49.740;10.154;2022-12-18T12:10:58;49.05;;;19.85;;
74363;SDS011;62797;49.740;10.154;2022-12-18T12:24:59;65.15;;;21.50;;
74363;SDS011;62797;49.740;10.154;2022-12-18T12:40:30;49.65;;;18.17;;
74363;SDS011;62797;49.740;10.154;2022-12-18T12:43:01;47.60;;;16.90;;
74363;SDS011;62797;49.740;10.154;2022-12-18T12:48:05;50.37;;;20.07;;
74363;SDS011;62797;49.740;10.154;2022-12-18T12:50:41;53.75;;;19.98;;
74363;SDS011;62797;49.740;10.154;2022-12-18T12:53:07;57.55;;;20.30;;
74363;SDS011;62797;49.740;10.154;2022-12-18T12:55:39;46.83;;;18.00;;
74363;SDS011;62797;49.740;10.154;2022-12-18T13:00:53;53.00;;;18.80;;
74363;SDS011;62797;49.740;10.154;2022-12-18T13:06:25;44.67;;;17.60;;
74363;SDS011;62797;49.740;10.154;2022-12-18T13:08:55;54.65;;;20.80;;
74363;SDS011;62797;49.740;10.154;2022-12-18T13:11:35;55.03;;;21.00;;
74363;SDS011;62797;49.740;10.154;2022-12-18T13:14:43;48.97;;;18.60;;
74363;SDS011;62797;49.740;10.154;2022-12-18T13:19:42;50.85;;;18.65;;
74363;SDS011;62797;49.740;10.154;2022-12-18T13:24:46;49.03;;;19.10;;
74363;SDS011;62797;49.740;10.154;2022-12-18T13:27:54;42.07;;;16.70;;
74363;SDS011;62797;49.740;10.154;2022-12-18T13:39:08;42.47;;;16.00;;
74363;SDS011;62797;49.740;10.154;2022-12-18T13:40:58;46.05;;;19.05;;
74363;SDS011;62797;49.740;10.154;2022-12-18T13:43:32;47.92;;;16.45;;
74363;SDS011;62797;49.740;10.154;2022-12-18T13:46:21;47.17;;;19.00;;
74363;SDS011;62797;49.740;10.154;2022-12-18T13:51:39;49.80;;;19.48;;
74363;SDS011;62797;49.740;10.154;2022-12-18T13:54:18;52.28;;;18.75;;
74363;SDS011;62797;49.740;10.154;2022-12-18T13:56:45;52.17;;;19.38;;
74363;SDS011;62797;49.740;10.154;2022-12-18T14:01:48;42.00;;;17.40;;
74363;SDS011;62797;49.740;10.154;2022-12-18T14:04:20;46.10;;;17.17;;
74363;SDS011;62797;49.740;10.154;2022-12-18T14:06:50;56.47;;;19.75;;
74363;SDS011;62797;49.740;10.154;2022-12-18T14:09:24;47.30;;;17.05;;
74363;SDS011;62797;49.740;10.154;2022-12-18T14:11:53;55.80;;;18.77;;
74363;SDS011;62797;49.740;10.154;2022-12-18T14:14:41;40.70;;;17.08;;
74363;SDS011;62797;49.740;10.154;2022-12-18T14:17:12;43.28;;;17.67;;
74363;SDS011;62797;49.740;10.154;2022-12-18T14:19:40;43.88;;;17.05;;
74363;SDS011;62797;49.740;10.154;2022-12-18T14:22:17;41.28;;;16.70;;
74363;SDS011;62797;49.740;10.154;2022-12-18T14:25:05;46.88;;;16.50;;
74363;SDS011;62797;49.740;10.154;2022-12-18T14:33:08;44.92;;;17.45;;
74363;SDS011;62797;49.740;10.154;2022-12-18T14:35:37;51.95;;;20.30;;
74363;SDS011;62797;49.740;10.154;2022-12-18T14:38:16;57.22;;;21.75;;
74363;SDS011;62797;49.740;10.154;2022-12-18T14:40:55;62.22;;;21.55;;
74363;SDS011;62797;49.740;10.154;2022-12-18T14:43:22;54.88;;;21.77;;
74363;SDS011;62797;49.740;10.154;2022-12-18T14:45:48;61.15;;;23.70;;
74363;SDS011;62797;49.740;10.154;2022-12-18T14:50:57;62.25;;;23.00;;
74363;SDS011;62797;49.740;10.154;2022-12-18T14:55:58;62.45;;;22.17;;
74363;SDS011;62797;49.740;10.154;2022-12-18T14:58:24;55.80;;;20.05;;
74363;SDS011;62797;49.740;10.154;2022-12-18T15:00:50;60.85;;;23.52;;
74363;SDS011;62797;49.740;10.154;2022-12-18T15:03:17;63.53;;;25.05;;
74363;SDS011;62797;49.740;10.154;2022-12-18T15:05:45;64.63;;;24.92;;
74363;SDS011;62797;49.740;10.154;2022-12-18T15:08:27;61.33;;;25.15;;
74363;SDS011;62797;49.740;10.154;2022-12-18T15:10:54;63.60;;;24.70;;
74363;SDS011;62797;49.740;10.154;2022-12-18T15:13:21;65.25;;;24.85;;
74363;SDS011;62797;49.740;10.154;2022-12-18T15:15:49;73.97;;;26.20;;
74363;SDS011;62797;49.740;10.154;2022-12-18T15:18:17;63.38;;;23.30;;
74363;SDS011;62797;49.740;10.154;2022-12-18T15:25:57;60.53;;;23.05;;
74363;SDS011;62797;49.740;10.154;2022-12-18T15:33:41;63.15;;;21.98;;
74363;SDS011;62797;49.740;10.154;2022-12-18T15:36:12;62.78;;;26.15;;
74363;SDS011;62797;49.740;10.154;2022-12-18T15:38:38;65.70;;;27.17;;
74363;SDS011;62797;49.740;10.154;2022-12-18T15:41:04;70.40;;;25.27;;
74363;SDS011;62797;49.740;10.154;2022-12-18T15:43:30;57.80;;;23.45;;
74363;SDS011;62797;49.740;10.154;2022-12-18T15:45:59;76.97;;;26.38;;
74363;SDS011;62797;49.740;10.154;2022-12-18T15:48:26;70.38;;;26.67;;
74363;SDS011;62797;49.740;10.154;2022-12-18T15:50:52;73.93;;;26.45;;
74363;SDS011;62797;49.740;10.154;2022-12-18T15:53:21;65.20;;;24.15;;
74363;SDS011;62797;49.740;10.154;2022-12-18T15:55:48;81.78;;;26.33;;
74363;SDS011;62797;49.740;10.154;2022-12-18T15:58:32;79.65;;;28.13;;
74363;SDS011;62797;49.740;10.154;2022-12-18T16:00:58;77.75;;;28.05;;
74363;SDS011;62797;49.740;10.154;2022-12-18T16:03:25;64.35;;;24.80;;
74363;SDS011;62797;49.740;10.154;2022-12-18T16:05:50;81.25;;;30.65;;
74363;SDS011;62797;49.740;10.154;2022-12-18T16:08:18;73.35;;;27.70;;
74363;SDS011;62797;49.740;10.154;2022-12-18T16:10:44;63.58;;;24.88;;
74363;SDS011;62797;49.740;10.154;2022-12-18T16:13:10;67.72;;;25.92;;
74363;SDS011;62797;49.740;10.154;2022-12-18T16:15:37;71.47;;;25.52;;
74363;SDS011;62797;49.740;10.154;2022-12-18T16:18:02;64.00;;;26.10;;
74363;SDS011;62797;49.740;10.154;2022-12-18T16:20:28;70.38;;;25.77;;
74363;SDS011;62797;49.740;10.154;2022-12-18T16:22:54;72.07;;;26.77;;
74363;SDS011;62797;49.740;10.154;2022-12-18T16:25:20;68.85;;;25.00;;
74363;SDS011;62797;49.740;10.154;2022-12-18T16:27:47;69.50;;;24.92;;
74363;SDS011;62797;49.740;10.154;2022-12-18T16:30:17;68.10;;;23.38;;
74363;SDS011;62797;49.740;10.154;2022-12-18T16:32:44;67.97;;;25.52;;
74363;SDS011;62797;49.740;10.154;2022-12-18T16:35:11;80.45;;;25.77;;
74363;SDS011;62797;49.740;10.154;2022-12-18T16:37:37;63.53;;;24.35;;
74363;SDS011;62797;49.740;10.154;2022-12-18T16:40:03;63.42;;;25.23;;
74363;SDS011;62797;49.740;10.154;2022-12-18T16:42:29;67.55;;;27.10;;
74363;SDS011;62797;49.740;10.154;2022-12-18T16:44:54;74.20;;;28.80;;
74363;SDS011;62797;49.740;10.154;2022-12-18T16:47:20;65.20;;;25.23;;
74363;SDS011;62797;49.740;10.154;2022-12-18T16:49:46;73.13;;;29.17;;
74363;SDS011;62797;49.740;10.154;2022-12-18T16:52:15;70.60;;;26.83;;
74363;SDS011;62797;49.740;10.154;2022-12-18T16:54:40;76.68;;;27.17;;
74363;SDS011;62797;49.740;10.154;2022-12-18T16:57:06;74.10;;;28.27;;
74363;SDS011;62797;49.740;10.154;2022-12-18T16:59:35;79.35;;;29.25;;
74363;SDS011;62797;49.740;10.154;2022-12-18T17:02:04;73.55;;;29.95;;
74363;SDS011;62797;49.740;10.154;2022-12-18T17:04:29;76.47;;;29.48;;
74363;SDS011;62797;49.740;10.154;2022-12-18T17:06:55;75.50;;;27.60;;
74363;SDS011;62797;49.740;10.154;2022-12-18T17:09:21;65.78;;;24.95;;
74363;SDS011;62797;49.740;10.154;2022-12-18T17:11:50;76.63;;;28.83;;
74363;SDS011;62797;49.740;10.154;2022-12-18T17:14:20;67.97;;;26.48;;
74363;SDS011;62797;49.740;10.154;2022-12-18T17:16:47;68.35;;;27.08;;
74363;SDS011;62797;49.740;10.154;2022-12-18T17:19:13;93.10;;;29.10;;
74363;SDS011;62797;49.740;10.154;2022-12-18T17:21:40;80.18;;;30.13;;
74363;SDS011;62797;49.740;10.154;2022-12-18T17:24:08;84.82;;;28.77;;
74363;SDS011;62797;49.740;10.154;2022-12-18T17:26:34;70.13;;;28.23;;